Time;durP1;ratioP1;P1;durP2;ratioP2;P2;SDS_P1;SDS_P2;PMS_P1;PMS_P2;Temp;Humidity;BMP_temperature;BMP_pressure;BME280_temperature;BME280_humidity;BME280_pressure;Samples;Min_cycle;Max_cycle;Signal;HPM_P1;HPM_P2
2024/04/10 00:04:35;;;;;;;2.30;1.15;;;;;;;8.82;51.96;100468.34;11265750;26;20006;-62
2024/04/10 00:09:38;;;;;;;1.85;0.60;;;;;;;8.90;52.02;100467.16;11246662;26;20021;-62
2024/04/10 00:14:41;;;;;;;5.95;1.23;;;;;;;8.96;51.54;100472.09;11279591;26;20014;-62
2024/04/10 00:19:52;;;;;;;5.40;0.95;;;;;;;8.84;52.62;100460.44;11275168;26;20017;-61
2024/04/10 00:24:55;;;;;;;1.77;1.23;;;;;;;8.81;52.16;100473.63;11253042;26;20048;-62
2024/04/10 00:29:58;;;;;;;2.10;0.70;;;;;;;8.68;52.49;100477.69;11229702;26;20006;-62
2024/04/10 00:35:00;;;;;;;3.30;0.85;;;;;;;8.60;52.85;100485.84;11263393;26;20572;-62
2024/04/10 00:40:03;;;;;;;5.70;1.13;;;;;;;8.66;52.80;100476.91;11282325;26;20006;-61
2024/04/10 00:45:06;;;;;;;2.17;0.75;;;;;;;8.59;52.65;100489.34;11271785;26;19998;-62
2024/04/10 00:50:08;;;;;;;2.13;1.05;;;;;;;8.61;52.40;100492.72;11207043;26;20466;-62
2024/04/10 00:55:16;;;;;;;1.33;0.90;;;;;;;8.45;53.48;100493.44;11268111;26;20026;-61
2024/04/10 01:00:18;;;;;;;2.92;0.93;;;;;;;8.45;53.24;100493.44;11293015;26;19998;-61
2024/04/10 01:05:21;;;;;;;1.42;0.70;;;;;;;8.43;52.91;100501.34;11268233;26;20033;-62
2024/04/10 01:10:24;;;;;;;3.28;1.55;;;;;;;8.31;53.32;100508.81;11257133;26;19998;-62
2024/04/10 01:15:26;;;;;;;3.85;0.88;;;;;;;8.35;53.41;100519.06;11267781;26;20216;-61
2024/04/10 01:20:29;;;;;;;1.38;1.20;;;;;;;8.31;53.45;100514.88;11251730;26;20371;-61
2024/04/10 01:25:32;;;;;;;0.98;0.73;;;;;;;8.23;53.61;100516.94;11271997;26;20002;-62
2024/04/10 01:30:35;;;;;;;2.65;1.65;;;;;;;8.29;53.55;100519.31;11284000;26;20319;-61
2024/04/10 01:35:37;;;;;;;3.45;0.70;;;;;;;8.21;53.77;100524.00;11260368;26;19998;-61
2024/04/10 01:40:40;;;;;;;0.88;0.60;;;;;;;8.07;54.15;100525.41;11291093;26;20016;-61
2024/04/10 01:45:43;;;;;;;1.20;0.70;;;;;;;7.95;54.24;100532.81;11271223;26;20138;-62
2024/04/10 01:50:45;;;;;;;2.47;0.77;;;;;;;7.90;54.65;100539.97;11280511;26;19998;-61
2024/04/10 01:55:48;;;;;;;2.78;0.80;;;;;;;7.88;54.62;100546.97;11263784;26;20002;-62
2024/04/10 02:00:50;;;;;;;1.52;0.80;;;;;;;7.90;54.37;100562.53;11291007;26;20044;-61
2024/04/10 02:05:53;;;;;;;2.60;0.93;;;;;;;7.81;54.72;100558.53;11269431;26;20279;-61
2024/04/10 02:11:00;;;;;;;2.65;1.08;;;;;;;7.81;54.90;100563.72;11287562;26;20516;-61
2024/04/10 02:16:03;;;;;;;3.45;1.17;;;;;;;7.81;54.83;100568.13;11267392;26;20219;-61
2024/04/10 02:21:06;;;;;;;3.70;1.08;;;;;;;7.68;54.98;100570.34;11269390;26;19994;-62
2024/04/10 02:26:12;;;;;;;1.10;0.70;;;;;;;7.61;56.01;100568.03;11285775;26;20059;-61
2024/04/10 02:31:15;;;;;;;0.70;0.68;;;;;;;7.66;55.24;100572.16;11281024;26;20032;-62
2024/04/10 02:36:18;;;;;;;3.88;1.00;;;;;;;7.57;55.20;100585.50;11280972;26;20077;-61
2024/04/10 02:41:20;;;;;;;25.60;1.92;;;;;;;7.60;55.43;100594.94;11263774;26;20007;-61
2024/04/10 02:46:23;;;;;;;1.50;1.00;;;;;;;7.58;55.00;100607.16;11310822;26;20037;-62
2024/04/10 02:51:26;;;;;;;1.77;1.00;;;;;;;7.68;55.13;100606.78;11323558;26;19998;-62
2024/04/10 02:56:29;;;;;;;3.70;1.25;;;;;;;7.68;55.27;100618.94;11291314;26;20025;-61
2024/04/10 03:01:32;;;;;;;1.90;1.02;;;;;;;7.52;55.44;100626.47;11321120;26;20830;-62
2024/04/10 03:06:34;;;;;;;1.75;0.82;;;;;;;7.49;55.53;100634.38;11319567;26;20021;-62
2024/04/10 03:11:38;;;;;;;2.85;0.75;;;;;;;7.45;55.60;100637.16;11346962;25;20002;-62
2024/04/10 03:16:41;;;;;;;1.88;0.82;;;;;;;7.38;55.82;100639.13;11324187;26;20022;-61
2024/04/10 03:21:43;;;;;;;4.82;1.38;;;;;;;7.39;55.73;100646.03;11292742;26;19999;-61
2024/04/10 03:26:46;;;;;;;3.45;1.77;;;;;;;7.40;56.09;100662.50;11324690;26;20017;-61
2024/04/10 03:31:48;;;;;;;3.92;1.60;;;;;;;7.29;56.04;100668.06;11292260;26;20539;-61
2024/04/10 03:36:53;;;;;;;1.88;1.00;;;;;;;7.26;56.31;100685.53;11323000;26;20764;-61
2024/04/10 03:41:56;;;;;;;2.92;1.30;;;;;;;7.22;56.42;100699.56;11263960;26;20002;-61
2024/04/10 03:47:02;;;;;;;2.33;1.50;;;;;;;7.23;56.24;100709.91;11325030;26;20016;-62
2024/04/10 03:52:05;;;;;;;2.38;0.70;;;;;;;7.18;56.64;100711.81;11325662;26;20009;-61
2024/04/10 03:57:08;;;;;;;5.32;1.95;;;;;;;7.20;56.28;100730.81;11291018;26;20010;-61
2024/04/10 04:02:13;;;;;;;4.72;2.28;;;;;;;7.17;56.44;100729.16;11323652;26;20439;-61
2024/04/10 04:07:15;;;;;;;2.00;0.88;;;;;;;7.29;56.13;100740.06;11286938;26;19998;-61
2024/04/10 04:12:18;;;;;;;2.58;1.20;;;;;;;7.50;56.15;100752.34;11322394;26;20450;-61
2024/04/10 04:17:24;;;;;;;2.08;0.93;;;;;;;7.58;56.05;100758.16;11322760;26;20034;-61
2024/04/10 04:22:27;;;;;;;4.35;1.60;;;;;;;7.53;56.25;100768.72;11324076;26;19998;-61
2024/04/10 04:27:32;;;;;;;7.35;1.15;;;;;;;7.42;56.46;100783.84;11321541;26;20442;-61
2024/04/10 04:32:35;;;;;;;8.63;1.30;;;;;;;7.22;56.72;100780.19;11324157;26;20024;-62
2024/04/10 04:39:14;;;;;;;7.72;1.77;;;;;;;7.07;56.84;100802.34;11363714;25;20472;-61
2024/04/10 04:44:16;;;;;;;1.88;0.82;;;;;;;6.97;56.92;100813.94;11329988;26;20006;-62
2024/04/10 04:49:19;;;;;;;1.80;1.00;;;;;;;6.92;57.02;100823.63;11361994;25;20560;-62
2024/04/10 04:54:21;;;;;;;3.58;1.20;;;;;;;6.98;57.02;100833.81;11360125;25;20384;-61
2024/04/10 04:59:24;;;;;;;3.88;1.38;;;;;;;7.10;56.88;100849.09;11361860;26;20002;-61
2024/04/10 05:09:51;;;;;;;2.17;0.85;;;;;;;7.19;56.86;100867.84;11362410;25;20001;-61
2024/04/10 05:14:55;;;;;;;2.13;0.65;;;;;;;7.30;56.66;100869.25;11360594;25;20478;-61
2024/04/10 05:19:57;;;;;;;3.10;1.00;;;;;;;7.38;56.43;100870.72;11357535;25;19998;-61
2024/04/10 05:25:00;;;;;;;3.47;0.90;;;;;;;7.56;56.38;100875.34;11351372;25;20004;-61
2024/04/10 05:30:07;;;;;;;5.28;1.25;;;;;;;7.78;56.22;100876.34;11361828;26;20001;-62
2024/04/10 05:35:12;;;;;;;1.73;1.25;;;;;;;7.63;56.05;100897.66;11358426;26;20427;-61
2024/04/10 05:40:16;;;;;;;5.00;1.70;;;;;;;7.72;56.06;100915.59;11359532;25;20002;-61
2024/04/10 05:45:20;;;;;;;3.47;1.70;;;;;;;7.71;56.60;100926.06;11358221;25;19998;-61
2024/04/10 05:50:22;;;;;;;4.88;1.30;;;;;;;7.86;55.85;100930.75;11325161;26;19998;-62
2024/04/10 05:55:25;;;;;;;3.47;1.60;;;;;;;8.10;56.01;100931.72;11327150;26;19998;-61
2024/04/10 06:00:28;;;;;;;1.63;1.20;;;;;;;8.33;55.57;100947.44;11326445;26;20006;-61
2024/04/10 06:05:30;;;;;;;5.60;1.02;;;;;;;8.34;56.00;100938.72;11327490;26;20013;-61
2024/04/10 06:10:33;;;;;;;2.92;0.90;;;;;;;8.29;55.66;100951.06;11325793;26;20041;-61
2024/04/10 06:15:36;;;;;;;1.77;1.13;;;;;;;8.35;55.75;100948.22;11325147;26;20762;-61
2024/04/10 06:20:39;;;;;;;3.53;1.30;;;;;;;8.94;55.52;100966.97;11324987;26;20013;-62
2024/04/10 06:25:42;;;;;;;3.85;0.90;;;;;;;9.28;54.53;100970.88;11327191;26;20346;-62
2024/04/10 06:30:45;;;;;;;6.60;1.55;;;;;;;9.36;54.13;100970.59;11326528;26;19998;-62
2024/04/10 06:35:47;;;;;;;5.28;2.00;;;;;;;9.22;54.01;100965.88;11325549;26;20017;-62
2024/04/10 06:40:57;;;;;;;2.75;1.10;;;;;;;9.01;54.26;100978.91;11325097;26;19998;-62
2024/04/10 06:46:02;;;;;;;4.22;1.55;;;;;;;8.94;54.41;100985.22;11323051;26;20079;-62
2024/04/10 06:51:06;;;;;;;4.25;1.92;;;;;;;8.91;54.52;100981.00;11318116;26;20390;-62
2024/04/10 06:56:09;;;;;;;3.17;1.05;;;;;;;8.92;54.50;100984.44;11315610;26;20006;-62
2024/04/10 07:01:12;;;;;;;2.42;1.10;;;;;;;9.05;54.09;100981.34;11318537;26;20237;-61
2024/04/10 07:06:20;;;;;;;2.83;0.95;;;;;;;9.13;54.16;101000.19;11315692;26;20014;-63
2024/04/10 07:11:23;;;;;;;1.63;1.33;;;;;;;9.34;53.64;100999.34;11311958;26;20067;-61
2024/04/10 07:16:30;;;;;;;5.80;1.73;;;;;;;9.45;53.82;101004.19;11314429;26;20002;-62
2024/04/10 07:21:34;;;;;;;3.90;1.05;;;;;;;9.69;53.17;101016.31;11316167;26;20244;-62
2024/04/10 07:26:37;;;;;;;8.50;1.30;;;;;;;10.04;52.66;101012.31;11315081;26;21312;-62
2024/04/10 07:31:41;;;;;;;3.67;1.92;;;;;;;10.73;52.13;101024.22;11313719;26;20002;-62
2024/04/10 07:36:44;;;;;;;3.88;1.25;;;;;;;11.40;51.06;101027.38;11310351;26;20005;-62
2024/04/10 07:41:51;;;;;;;3.85;0.90;;;;;;;12.19;49.55;101025.28;11280165;26;20006;-62
2024/04/10 07:46:54;;;;;;;5.97;1.33;;;;;;;13.19;48.42;101038.53;11311343;26;20398;-62
2024/04/10 07:52:00;;;;;;;4.50;1.27;;;;;;;13.30;47.17;101037.03;11310611;26;20017;-62
2024/04/10 07:57:03;;;;;;;2.50;1.20;;;;;;;13.67;47.32;101039.41;11308642;26;20038;-62
2024/04/10 08:02:06;;;;;;;3.97;1.58;;;;;;;13.94;46.07;101026.50;11299774;26;20496;-62
2024/04/10 08:07:09;;;;;;;5.95;1.67;;;;;;;14.38;45.05;101037.97;11301030;26;20366;-62
2024/04/10 08:12:11;;;;;;;5.60;1.40;;;;;;;14.77;44.20;101049.75;11311364;26;20006;-62
2024/04/10 08:17:15;;;;;;;2.90;1.30;;;;;;;14.80;43.98;101050.41;11310740;26;20006;-62
2024/04/10 08:22:18;;;;;;;3.33;1.58;;;;;;;14.32;43.69;101064.63;11307712;26;20002;-62
2024/04/10 08:27:21;;;;;;;3.78;1.38;;;;;;;14.59;43.31;101068.31;11303895;26;20013;-62
2024/04/10 08:32:23;;;;;;;4.53;1.40;;;;;;;14.99;42.80;101068.59;11313877;26;20563;-63
2024/04/10 08:37:26;;;;;;;4.45;1.20;;;;;;;14.20;43.76;101078.47;11313361;26;20013;-63
2024/04/10 08:42:29;;;;;;;4.05;1.40;;;;;;;14.16;42.96;101095.38;11311497;26;20002;-63
2024/04/10 08:47:32;;;;;;;6.32;1.40;;;;;;;13.89;43.34;101096.03;11311929;26;20879;-63
2024/04/10 08:52:37;;;;;;;3.15;1.80;;;;;;;14.24;43.46;101095.78;11372452;25;20027;-62
2024/04/10 08:57:40;;;;;;;2.63;1.20;;;;;;;14.27;42.94;101100.88;11311005;26;20021;-63
2024/04/10 09:02:43;;;;;;;7.57;2.10;;;;;;;13.64;42.92;101123.66;11308924;26;20013;-62
2024/04/10 09:07:57;;;;;;;3.20;1.25;;;;;;;13.71;43.46;101135.56;11310481;26;20557;-63
2024/04/10 09:13:04;;;;;;;2.85;1.40;;;;;;;13.75;42.95;101133.63;11315915;26;20470;-63
2024/04/10 09:18:09;;;;;;;2.83;1.25;;;;;;;13.81;43.00;101132.44;11314494;26;20006;-62
2024/04/10 09:23:15;;;;;;;5.07;1.92;;;;;;;13.88;43.01;101134.63;11315852;26;20456;-62
2024/04/10 09:28:17;;;;;;;5.32;1.33;;;;;;;13.79;43.22;101129.88;11318776;26;20373;-63
2024/04/10 09:33:20;;;;;;;3.75;1.63;;;;;;;13.95;42.81;101143.91;11315637;26;20006;-62
2024/04/10 09:38:24;;;;;;;2.58;1.20;;;;;;;14.02;43.15;101137.38;11322480;26;20002;-62
2024/04/10 09:43:30;;;;;;;0.98;0.82;;;;;;;14.17;42.13;101139.16;11326406;26;19998;-62
2024/04/10 09:48:34;;;;;;;2.55;1.15;;;;;;;14.47;41.81;101133.97;11326314;26;20016;-62
2024/04/10 09:53:37;;;;;;;1.80;1.08;;;;;;;16.19;38.19;101131.38;11325612;26;20013;-62
2024/04/10 09:58:40;;;;;;;2.67;1.15;;;;;;;16.12;38.42;101128.28;11324342;26;19998;-62
2024/04/10 10:03:43;;;;;;;2.63;1.63;;;;;;;15.70;38.46;101133.63;11319041;26;20423;-62
2024/04/10 10:08:51;;;;;;;5.05;1.10;;;;;;;14.96;39.35;101129.38;11326053;26;20012;-62
2024/04/10 10:14:02;;;;;;;2.15;1.05;;;;;;;14.81;39.03;101130.28;11299121;26;20020;-62
2024/04/10 10:19:07;;;;;;;5.78;1.20;;;;;;;14.48;40.89;101131.25;11325423;26;20002;-62
2024/04/10 10:24:14;;;;;;;3.13;1.63;;;;;;;14.50;40.11;101136.44;11323719;26;19998;-62
2024/04/10 10:29:18;;;;;;;2.22;1.30;;;;;;;14.30;41.24;101142.81;11321112;26;20043;-62
2024/04/10 10:34:23;;;;;;;2.97;1.00;;;;;;;14.02;41.12;101147.91;11321030;26;20002;-62
2024/04/10 10:39:28;;;;;;;3.50;1.20;;;;;;;13.98;41.54;101156.91;11324153;26;20928;-62
2024/04/10 10:44:31;;;;;;;4.18;1.15;;;;;;;13.92;41.10;101154.59;11320572;26;20021;-63
2024/04/10 10:49:33;;;;;;;5.32;1.20;;;;;;;14.11;41.42;101159.69;11322714;26;20006;-62
2024/04/10 10:54:36;;;;;;;3.30;1.00;;;;;;;14.33;41.27;101163.69;11321577;26;20458;-62
2024/04/10 10:59:39;;;;;;;1.80;1.10;;;;;;;14.76;40.17;101156.88;11321344;26;20470;-62
2024/04/10 11:04:41;;;;;;;4.03;1.13;;;;;;;15.24;40.12;101150.53;11323745;26;20002;-62
2024/04/10 11:09:44;;;;;;;4.35;1.98;;;;;;;15.60;39.10;101156.22;11315554;26;20463;-62
2024/04/10 11:14:48;;;;;;;4.47;1.20;;;;;;;15.43;38.62;101164.28;11321493;26;20006;-62
2024/04/10 11:19:51;;;;;;;3.78;1.20;;;;;;;15.24;39.27;101164.56;11322283;26;20041;-62
2024/04/10 11:24:54;;;;;;;3.03;0.85;;;;;;;15.05;39.22;101157.81;11319183;26;20010;-63
2024/04/10 11:29:58;;;;;;;2.13;1.17;;;;;;;14.88;39.51;101165.88;11313486;26;20473;-62
2024/04/10 11:35:01;;;;;;;3.47;1.38;;;;;;;14.68;40.17;101166.13;11314403;26;20247;-62
2024/04/10 11:40:11;;;;;;;4.65;1.40;;;;;;;14.51;40.22;101170.56;11309237;26;20016;-63
2024/04/10 11:45:15;;;;;;;3.88;1.60;;;;;;;14.38;40.01;101171.31;11313054;26;20007;-62
2024/04/10 11:50:19;;;;;;;4.55;1.20;;;;;;;14.42;40.13;101180.75;11319653;26;20002;-62
2024/04/10 11:55:22;;;;;;;5.18;1.48;;;;;;;14.38;40.30;101177.44;11325148;26;20013;-62
2024/04/10 12:00:24;;;;;;;2.92;1.15;;;;;;;14.61;40.03;101176.19;11326039;26;20009;-62
2024/04/10 12:05:27;;;;;;;3.97;1.45;;;;;;;14.85;40.01;101171.28;11295006;26;20002;-63
2024/04/10 12:10:32;;;;;;;3.58;1.23;;;;;;;15.19;39.55;101179.78;11315311;26;20474;-62
2024/04/10 12:15:34;;;;;;;5.57;1.42;;;;;;;15.43;39.06;101183.59;11325422;26;20088;-63
2024/04/10 12:20:37;;;;;;;4.40;1.48;;;;;;;15.77;38.97;101181.56;11324498;26;19998;-63
2024/04/10 12:25:40;;;;;;;3.13;1.10;;;;;;;15.77;38.95;101186.84;11322939;26;19998;-62
2024/04/10 12:30:42;;;;;;;3.10;1.40;;;;;;;15.68;38.53;101177.72;11324407;26;20018;-63
2024/04/10 12:41:06;;;;;;;4.90;1.00;;;;;;;15.37;38.74;101181.31;11316969;26;19994;-62
2024/04/10 12:46:09;;;;;;;3.67;1.25;;;;;;;15.06;39.06;101177.97;11289888;26;19998;-62
2024/04/10 12:51:12;;;;;;;2.88;0.93;;;;;;;14.99;39.50;101176.59;11315296;26;20077;-62
2024/04/10 12:56:14;;;;;;;3.92;1.52;;;;;;;14.90;39.04;101183.25;11318871;26;20009;-62
2024/04/10 13:01:17;;;;;;;2.63;1.20;;;;;;;15.00;39.02;101183.59;11324883;26;19994;-62
2024/04/10 13:06:24;;;;;;;5.05;1.95;;;;;;;15.21;38.59;101171.78;11324842;26;19998;-63
2024/04/10 13:11:28;;;;;;;2.35;1.10;;;;;;;15.57;38.11;101177.50;11324652;26;20002;-62
2024/04/10 13:16:30;;;;;;;1.42;0.98;;;;;;;15.91;37.30;101185.06;11324255;26;20018;-63
2024/04/10 13:21:33;;;;;;;4.05;1.20;;;;;;;16.05;37.06;101182.41;11322414;26;20002;-63
2024/04/10 13:26:39;;;;;;;3.88;1.02;;;;;;;16.86;36.41;101178.06;11321235;26;20013;-63
2024/04/10 13:31:42;;;;;;;3.10;1.00;;;;;;;16.49;35.79;101182.25;11319975;26;20045;-63
2024/04/10 13:36:45;;;;;;;2.58;0.95;;;;;;;16.90;35.64;101184.81;11283760;26;20221;-62
2024/04/10 13:41:47;;;;;;;2.03;1.17;;;;;;;16.55;35.05;101183.66;11311694;26;20009;-63
2024/04/10 13:46:51;;;;;;;3.45;1.13;;;;;;;16.29;35.07;101195.84;11314680;26;20021;-63
2024/04/10 13:51:55;;;;;;;3.10;1.65;;;;;;;15.87;35.15;101194.13;11313475;26;20021;-64
2024/04/10 13:56:57;;;;;;;1.70;0.88;;;;;;;16.21;35.14;101192.84;11316439;26;19994;-61
2024/04/10 14:02:00;;;;;;;2.08;0.70;;;;;;;16.41;34.58;101199.47;11316251;26;20002;-62
2024/04/10 14:07:03;;;;;;;3.38;1.10;;;;;;;16.60;34.43;101190.34;11316251;26;20013;-62
2024/04/10 14:12:06;;;;;;;2.05;1.00;;;;;;;16.60;34.43;101185.06;11324721;26;20871;-61
2024/04/10 14:17:09;;;;;;;2.22;1.00;;;;;;;16.44;34.87;101191.41;11322100;26;20766;-62
2024/04/10 14:22:25;;;;;;;2.42;0.93;;;;;;;16.44;34.79;101194.06;11323511;26;20461;-63
2024/04/10 14:27:28;;;;;;;3.83;1.73;;;;;;;16.22;34.32;101205.94;11322486;26;20446;-62
2024/04/10 14:32:31;;;;;;;1.35;0.77;;;;;;;16.02;34.64;101200.19;11322632;26;19994;-62
2024/04/10 14:37:34;;;;;;;2.40;0.95;;;;;;;16.00;34.64;101199.44;11320109;26;20002;-62
2024/04/10 14:42:37;;;;;;;1.60;0.88;;;;;;;15.72;34.92;101207.38;11323061;26;19998;-62
2024/04/10 14:47:40;;;;;;;3.58;0.90;;;;;;;15.62;35.07;101198.31;11321950;26;20009;-63
2024/04/10 14:52:42;;;;;;;2.17;1.10;;;;;;;15.72;35.21;101205.59;11231094;26;19994;-62
2024/04/10 14:57:45;;;;;;;1.58;1.02;;;;;;;15.81;35.44;101199.75;11320303;26;20006;-62
2024/04/10 15:02:47;;;;;;;2.28;0.98;;;;;;;15.63;35.27;101192.13;11319608;26;20013;-62
2024/04/10 15:07:50;;;;;;;1.63;0.85;;;;;;;15.50;34.91;101194.66;11312820;26;20006;-61
2024/04/10 15:12:53;;;;;;;2.88;1.13;;;;;;;15.57;35.16;101187.22;11288130;26;20507;-62
2024/04/10 15:17:58;;;;;;;2.13;0.88;;;;;;;15.86;34.14;101187.13;11319758;26;20510;-62
2024/04/10 15:23:01;;;;;;;2.10;0.77;;;;;;;16.04;33.78;101185.97;11318297;26;19998;-63
2024/04/10 15:28:04;;;;;;;0.88;0.88;;;;;;;16.19;32.89;101179.75;11315568;26;20431;-63
2024/04/10 15:33:10;;;;;;;0.88;0.65;;;;;;;16.40;32.75;101180.19;11321361;26;19998;-62
2024/04/10 15:38:14;;;;;;;0.98;0.63;;;;;;;16.43;32.70;101179.09;11319069;26;20069;-62
2024/04/10 15:43:17;;;;;;;1.33;0.77;;;;;;;16.36;32.27;101177.81;11322769;26;19998;-62
2024/04/10 15:48:19;;;;;;;2.00;0.90;;;;;;;16.31;32.54;101177.25;11316442;26;20009;-62
2024/04/10 15:53:23;;;;;;;2.78;0.75;;;;;;;16.60;32.45;101178.91;11321642;26;20438;-62
2024/04/10 15:58:26;;;;;;;1.88;0.82;;;;;;;16.56;32.59;101182.69;11290465;26;20017;-62
2024/04/10 16:03:31;;;;;;;1.88;0.90;;;;;;;16.43;32.57;101194.94;11326743;26;20583;-62
2024/04/10 16:08:34;;;;;;;0.88;0.70;;;;;;;16.83;31.57;101187.00;11325676;26;20002;-62
2024/04/10 16:13:37;;;;;;;6.75;0.90;;;;;;;16.82;30.18;101179.19;11323743;26;20002;-63
2024/04/10 16:18:42;;;;;;;1.67;0.75;;;;;;;16.86;31.23;101183.34;11325031;26;20006;-62
2024/04/10 16:23:46;;;;;;;1.13;0.70;;;;;;;16.74;30.58;101176.22;11322016;26;20010;-62
2024/04/10 16:28:49;;;;;;;1.15;0.70;;;;;;;16.49;30.58;101178.78;11323910;26;20006;-62
2024/04/10 16:33:52;;;;;;;2.13;0.90;;;;;;;16.63;30.48;101184.00;11324182;26;20002;-63
2024/04/10 16:38:56;;;;;;;1.90;0.60;;;;;;;16.64;30.81;101186.53;11325883;26;20006;-63
2024/04/10 16:43:59;;;;;;;1.23;0.60;;;;;;;17.53;30.49;101188.44;11325109;26;20049;-63
2024/04/10 16:49:06;;;;;;;1.50;0.90;;;;;;;17.95;30.50;101189.06;11317807;26;20011;-62
2024/04/10 16:54:08;;;;;;;2.85;1.42;;;;;;;16.96;31.23;101197.63;11318177;26;20107;-63
2024/04/10 16:59:11;;;;;;;1.77;0.90;;;;;;;17.22;32.14;101202.03;11323228;26;20013;-62
2024/04/10 17:04:14;;;;;;;3.58;1.05;;;;;;;16.83;32.34;101204.69;11319903;26;20436;-62
2024/04/10 17:09:17;;;;;;;3.30;0.88;;;;;;;16.42;32.58;101206.47;11325348;26;20006;-62
2024/04/10 17:14:21;;;;;;;2.15;1.05;;;;;;;16.00;33.39;101213.50;11321473;26;20017;-62
2024/04/10 17:24:45;;;;;;;2.72;1.13;;;;;;;15.97;33.93;101223.41;11316443;26;20469;-62
2024/04/10 17:29:48;;;;;;;2.33;0.93;;;;;;;15.79;34.32;101228.03;11311871;26;20338;-62
2024/04/10 17:34:51;;;;;;;1.67;0.75;;;;;;;15.69;35.04;101236.59;11310824;26;20611;-62
2024/04/10 17:39:54;;;;;;;1.58;1.00;;;;;;;15.57;35.69;101242.59;11281133;26;20078;-62
2024/04/10 17:44:56;;;;;;;11.45;1.85;;;;;;;15.28;36.35;101249.56;11319199;26;20462;-62
2024/04/10 17:49:59;;;;;;;1.48;1.00;;;;;;;15.07;36.12;101245.50;11319638;26;20017;-62
2024/04/10 17:55:02;;;;;;;1.40;1.00;;;;;;;14.80;36.45;101253.19;11322451;26;20002;-62
2024/04/10 18:00:05;;;;;;;3.78;1.67;;;;;;;14.40;36.80;101251.03;11325338;26;20010;-62
2024/04/10 18:05:15;;;;;;;1.50;0.95;;;;;;;13.99;37.68;101263.78;11321205;26;20019;-62
2024/04/10 18:10:17;;;;;;;1.45;0.85;;;;;;;13.68;38.89;101267.16;11330044;26;20010;-62
2024/04/10 18:15:20;;;;;;;1.88;1.00;;;;;;;13.44;39.16;101267.56;11329164;26;20024;-63
2024/04/10 18:20:23;;;;;;;2.80;1.10;;;;;;;13.32;38.87;101273.41;11329043;26;20008;-62
2024/04/10 18:25:26;;;;;;;2.28;0.90;;;;;;;13.03;39.95;101282.72;11328271;26;20017;-62
2024/04/10 18:30:28;;;;;;;1.65;0.95;;;;;;;12.82;40.49;101289.84;11327931;26;20017;-62
2024/04/10 18:35:31;;;;;;;1.38;0.90;;;;;;;12.70;40.41;101292.22;11295335;26;20017;-62
2024/04/10 18:40:34;;;;;;;1.88;1.00;;;;;;;12.59;40.43;101308.47;11325367;26;20419;-61
2024/04/10 18:45:36;;;;;;;3.38;1.17;;;;;;;12.39;40.69;101321.66;11316137;26;20042;-61
2024/04/10 18:50:41;;;;;;;3.15;1.67;;;;;;;12.11;41.20;101334.22;11288227;26;20006;-61
2024/04/10 18:55:55;;;;;;;1.83;1.10;;;;;;;11.81;42.65;101339.03;11322042;26;19999;-61
2024/04/10 19:01:00;;;;;;;3.97;1.50;;;;;;;11.82;42.68;101350.38;11319694;26;19994;-61
2024/04/10 19:06:08;;;;;;;3.08;1.40;;;;;;;11.83;43.50;101367.78;11326348;26;20494;-61
2024/04/10 19:11:12;;;;;;;3.72;1.75;;;;;;;11.81;43.79;101367.00;11321393;26;20667;-62
2024/04/10 19:16:15;;;;;;;3.28;1.10;;;;;;;11.81;43.97;101374.88;11320985;26;20002;-61
2024/04/10 19:21:18;;;;;;;2.13;0.93;;;;;;;11.80;44.36;101378.44;11326691;26;20039;-61
2024/04/10 19:26:21;;;;;;;5.00;1.30;;;;;;;11.73;44.74;101380.44;11326026;26;19998;-61
2024/04/10 19:31:24;;;;;;;1.98;1.20;;;;;;;11.59;45.11;101385.41;11326332;26;20075;-61
2024/04/10 19:36:29;;;;;;;1.88;1.45;;;;;;;11.44;45.31;101377.31;11325834;26;20533;-61
2024/04/10 19:41:32;;;;;;;2.90;1.20;;;;;;;11.25;45.94;101383.25;11327635;26;20002;-62
2024/04/10 19:46:35;;;;;;;2.55;1.35;;;;;;;11.08;46.32;101384.84;11295534;26;20013;-61
2024/04/10 19:51:37;;;;;;;3.78;1.10;;;;;;;10.90;46.80;101386.38;11323855;26;20315;-62
2024/04/10 19:56:40;;;;;;;1.73;0.88;;;;;;;10.72;46.96;101384.47;11325818;26;20316;-61
2024/04/10 20:01:43;;;;;;;2.80;1.17;;;;;;;10.62;47.52;101380.50;11319755;26;20009;-61
2024/04/10 20:06:45;;;;;;;5.15;2.25;;;;;;;10.51;47.79;101387.88;11322349;26;20450;-61
2024/04/10 20:11:48;;;;;;;8.57;3.10;;;;;;;10.40;48.13;101385.63;11317468;26;20013;-61
2024/04/10 20:16:51;;;;;;;3.35;1.65;;;;;;;10.24;48.57;101381.84;11320298;26;20046;-61
2024/04/10 20:21:54;;;;;;;3.33;1.20;;;;;;;9.88;49.01;101384.88;11317075;26;20010;-62
2024/04/10 20:26:57;;;;;;;21.77;4.43;;;;;;;9.63;49.86;101377.84;11321717;26;19998;-61
2024/04/10 20:31:59;;;;;;;2.65;1.25;;;;;;;9.43;49.72;101384.59;11313305;26;20021;-61
2024/04/10 20:37:04;;;;;;;1.35;1.05;;;;;;;9.35;50.23;101387.47;11323640;26;20006;-61
2024/04/10 20:42:10;;;;;;;2.38;1.52;;;;;;;9.34;50.18;101379.69;11324947;26;20740;-61
2024/04/10 20:47:21;;;;;;;2.70;1.15;;;;;;;9.33;50.85;101388.41;11325535;26;20013;-61
2024/04/10 20:52:24;;;;;;;;;;;;;;;9.19;52.24;101385.38;11325477;26;20031;-61
2024/04/10 20:57:28;;;;;;;3.88;1.20;;;;;;;9.11;51.29;101390.84;11324970;26;20396;-61
2024/04/10 21:02:32;;;;;;;3.33;2.00;;;;;;;9.07;51.64;101388.38;11324697;26;20006;-61
2024/04/10 22:11:56;;;;;;;2.05;1.10;;;;;;;7.52;54.12;101451.63;11328746;26;20490;-62
2024/04/10 22:27:41;;;;;;;1.42;1.15;;;;;;;7.24;54.67;101457.47;11328230;26;19931;-62
2024/04/10 22:32:44;;;;;;;2.45;1.20;;;;;;;7.27;54.71;101463.47;11329313;26;20002;-60
2024/04/10 22:37:47;;;;;;;1.83;1.17;;;;;;;7.20;55.00;101464.50;11330283;26;20006;-60
2024/04/10 22:42:49;;;;;;;1.25;1.00;;;;;;;7.14;55.18;101469.84;11327427;26;20013;-60
2024/04/10 22:47:52;;;;;;;1.45;1.20;;;;;;;7.12;55.18;101463.81;11320918;26;20355;-62
2024/04/10 22:52:54;;;;;;;2.65;1.35;;;;;;;7.05;55.33;101459.63;11328958;26;19998;-60
2024/04/10 22:57:57;;;;;;;2.00;1.20;;;;;;;6.99;55.46;101468.41;11329766;26;20453;-60
2024/04/10 23:03:01;;;;;;;1.60;1.30;;;;;;;6.92;55.50;101479.81;11329123;26;20002;-61
2024/04/10 23:08:04;;;;;;;2.90;1.70;;;;;;;6.78;55.39;101467.97;11329962;26;20002;-59
2024/04/10 23:13:26;;;;;;;2.85;1.27;;;;;;;6.68;55.99;101467.31;11328806;26;20058;-60
2024/04/10 23:18:29;;;;;;;3.45;1.52;;;;;;;6.73;56.09;101459.44;11327957;26;20081;-60
2024/04/10 23:23:51;;;;;;;2.88;1.30;;;;;;;6.72;55.84;101455.09;11328010;26;20014;-62
2024/04/10 23:28:54;;;;;;;2.22;1.23;;;;;;;6.66;56.21;101466.47;11328421;26;20010;-60
2024/04/10 23:33:57;;;;;;;1.35;1.10;;;;;;;6.39;56.19;101466.16;11328316;26;20055;-60
2024/04/10 23:39:00;;;;;;;2.78;1.45;;;;;;;6.34;56.46;101472.28;11327837;26;20743;-60
2024/04/10 23:44:02;;;;;;;4.35;1.77;;;;;;;6.37;56.50;101471.34;11325597;26;19998;-60
2024/04/10 23:49:05;;;;;;;1.83;1.38;;;;;;;6.34;56.27;101471.44;11327765;26;20338;-61
2024/04/10 23:54:08;;;;;;;4.15;1.60;;;;;;;6.32;56.72;101465.41;11326831;26;20006;-62
2024/04/10 23:59:12;;;;;;;5.93;1.25;;;;;;;6.21;56.71;101470.75;11324603;26;20017;-60
